Time;durP1;ratioP1;P1;durP2;ratioP2;P2;SDS_P1;SDS_P2;PMS_P1;PMS_P2;Temp;Humidity;BMP_temperature;BMP_pressure;BME280_temperature;BME280_humidity;BME280_pressure;Samples;Min_cycle;Max_cycle;Signal;HPM_P1;HPM_P2
2022/08/01 00:01:56;;;;;;;;;;;;;;;29.69;38.02;94432.06;5006279;28;7242;-62
2022/08/01 00:04:26;;;;;;;;;;;;;;;29.71;37.98;94440.63;5006769;28;8480;-62
2022/08/01 00:06:52;;;;;;;;;;;;;;;29.70;38.26;94439.13;5011720;28;7335;-62
2022/08/01 00:09:22;;;;;;;;;;;;;;;29.69;38.60;94440.41;5013614;28;7020;-62
2022/08/01 00:11:48;;;;;;;;;;;;;;;29.67;38.21;94443.72;5031491;28;9002;-62
2022/08/01 00:14:14;;;;;;;;;;;;;;;29.67;37.76;94440.19;5033036;28;7260;-62
2022/08/01 00:16:40;;;;;;;;;;;;;;;29.64;38.34;94430.19;5033348;28;9169;-62
2022/08/01 00:19:09;;;;;;;;;;;;;;;29.63;38.49;94445.31;5030709;28;9675;-62
2022/08/01 00:21:48;;;;;;;;;;;;;;;29.63;38.18;94446.06;5048683;28;8865;-62
2022/08/01 00:24:30;;;;;;;;;;;;;;;29.63;38.19;94442.53;5030687;28;7490;-62
2022/08/01 00:26:56;;;;;;;;;;;;;;;29.64;37.96;94441.28;5049191;28;9265;-62
2022/08/01 00:29:28;;;;;;;;;;;;;;;29.62;38.29;94444.56;5032237;28;6919;-62
2022/08/01 00:32:19;;;;;;;;;;;;;;;29.65;38.63;94443.50;5030261;28;7107;-62
2022/08/01 00:34:52;;;;;;;;;;;;;;;29.64;38.14;94442.03;5031845;28;9055;-62
2022/08/01 00:37:20;;;;;;;;;;;;;;;29.64;38.75;94441.28;5033251;28;7570;-62
2022/08/01 00:40:03;;;;;;;;;;;;;;;29.61;38.11;94451.41;5030387;28;9197;-62
2022/08/01 00:42:42;;;;;;;;;;;;;;;29.62;37.86;94441.78;5048373;28;7022;-62
2022/08/01 00:45:44;;;;;;;;;;;;;;;29.61;38.72;94445.09;5032489;28;7100;-62
2022/08/01 00:48:20;;;;;;;;;;;;;;;29.62;38.08;94446.63;5011485;28;9174;-62
2022/08/01 00:50:47;;;;;;;;;;;;;;;29.63;37.72;94446.06;5010488;28;9385;-62
2022/08/01 00:53:15;;;;;;;;;;;;;;;29.60;38.31;94440.88;4993522;28;7011;-62
2022/08/01 00:55:57;;;;;;;;;;;;;;;29.61;38.35;94448.63;5011481;28;8894;-62
2022/08/01 00:58:24;;;;;;;;;;;;;;;29.61;38.68;94454.19;4990488;28;8853;-62
2022/08/01 01:00:52;;;;;;;;;;;;;;;29.59;38.02;94442.13;5009927;28;9373;-62
2022/08/01 01:03:18;;;;;;;;;;;;;;;29.59;38.00;94444.91;5006070;28;7197;-62
2022/08/01 01:06:05;;;;;;;;;;;;;;;29.61;38.48;94447.88;4993957;28;9507;-62
2022/08/01 01:08:42;;;;;;;;;;;;;;;29.59;38.22;94444.91;5007248;28;8719;-62
2022/08/01 01:11:36;;;;;;;;;;;;;;;29.61;38.17;94447.88;5006104;28;7279;-62
2022/08/01 01:14:28;;;;;;;;;;;;;;;29.60;38.16;94449.91;5010820;28;7062;-62
2022/08/01 01:17:31;;;;;;;;;;;;;;;29.60;38.28;94446.41;4994902;28;8989;-62
2022/08/01 01:20:02;;;;;;;;;;;;;;;29.60;38.10;94452.69;4970682;28;7205;-62
2022/08/01 01:22:56;;;;;;;;;;;;;;;29.61;38.35;94456.19;4957118;28;7998;-62
2022/08/01 01:26:02;;;;;;;;;;;;;;;29.60;37.72;94452.69;4942292;28;7241;-62
2022/08/01 01:28:59;;;;;;;;;;;;;;;29.58;37.93;94451.75;4951363;28;7346;-62
2022/08/01 01:31:57;;;;;;;;;;;;;;;29.59;38.36;94448.44;4965775;28;7253;-62
2022/08/01 01:34:29;;;;;;;;;;;;;;;29.57;38.13;94447.47;4946579;28;7707;-62
2022/08/01 01:37:00;;;;;;;;;;;;;;;29.59;38.63;94456.75;4946325;28;8531;-62
2022/08/01 01:39:32;;;;;;;;;;;;;;;29.57;38.28;94450.25;4944044;28;9108;-62
2022/08/01 01:42:01;;;;;;;;;;;;;;;29.58;37.97;94451.75;4946120;28;7925;-62
2022/08/01 01:44:30;;;;;;;;;;;;;;;29.58;38.44;94448.97;4929996;28;7218;-62
2022/08/01 01:46:59;;;;;;;;;;;;;;;29.56;38.59;94446.72;4944580;28;7166;-62
2022/08/01 01:49:28;;;;;;;;;;;;;;;29.56;38.31;94454.28;4928089;28;7430;-62
2022/08/01 01:51:57;;;;;;;;;;;;;;;29.56;38.29;94457.06;4961410;28;9119;-62
2022/08/01 01:54:37;;;;;;;;;;;;;;;29.55;38.17;94453.56;4948769;28;9545;-62
2022/08/01 01:57:40;;;;;;;;;;;;;;;29.54;38.72;94446.50;4953147;28;8963;-62
2022/08/01 02:00:17;;;;;;;;;;;;;;;29.53;38.27;94449.81;4940426;28;9110;-62
2022/08/01 02:03:05;;;;;;;;;;;;;;;29.54;38.65;94445.75;4943425;28;8702;-62
2022/08/01 02:05:35;;;;;;;;;;;;;;;29.55;38.91;94445.25;4944668;28;9473;-62
2022/08/01 02:08:04;;;;;;;;;;;;;;;29.53;38.35;94447.81;4956077;28;9486;-62
2022/08/01 02:10:33;;;;;;;;;;;;;;;29.54;38.29;94446.50;4954836;28;7280;-62
2022/08/01 02:13:04;;;;;;;;;;;;;;;29.52;38.62;94451.84;4955229;28;7151;-62
2022/08/01 02:15:38;;;;;;;;;;;;;;;29.53;38.77;94453.34;4954803;28;9518;-62
2022/08/01 02:18:08;;;;;;;;;;;;;;;29.53;37.85;94458.13;4956098;28;7474;-62
2022/08/01 02:20:37;;;;;;;;;;;;;;;29.52;38.01;94456.63;4953850;28;7331;-62
2022/08/01 02:23:12;;;;;;;;;;;;;;;29.50;38.65;94448.13;4957150;28;7154;-62
2022/08/01 02:26:14;;;;;;;;;;;;;;;29.51;38.29;94449.63;4960060;28;6995;-62
2022/08/01 02:29:02;;;;;;;;;;;;;;;29.50;38.42;94453.66;4962247;28;7304;-62
2022/08/01 02:31:35;;;;;;;;;;;;;;;29.51;37.99;94444.06;4960333;28;7398;-62
2022/08/01 02:34:18;;;;;;;;;;;;;;;29.51;38.43;94455.16;4959494;28;9059;-62
2022/08/01 02:37:02;;;;;;;;;;;;;;;29.48;38.38;94451.44;5008964;28;7016;-62
2022/08/01 02:39:31;;;;;;;;;;;;;;;29.50;38.26;94448.13;5030816;28;7131;-62
2022/08/01 02:42:16;;;;;;;;;;;;;;;29.49;38.75;94458.44;5042931;28;9113;-62
2022/08/01 02:44:47;;;;;;;;;;;;;;;29.49;38.05;94457.72;5011056;28;9482;-62
2022/08/01 02:47:20;;;;;;;;;;;;;;;29.48;37.97;94462.50;5026210;28;7481;-62
2022/08/01 02:49:53;;;;;;;;;;;;;;;29.48;38.12;94456.97;5026068;28;7293;-62
2022/08/01 02:52:25;;;;;;;;;;;;;;;29.47;38.44;94452.69;5025912;28;7058;-62
2022/08/01 02:54:56;;;;;;;;;;;;;;;29.46;38.12;94459.53;5024812;28;7138;-62
2022/08/01 02:57:24;;;;;;;;;;;;;;;29.47;37.98;94449.94;5026413;28;7076;-62
2022/08/01 02:59:56;;;;;;;;;;;;;;;29.45;38.09;94451.75;5041182;28;7459;-62
2022/08/01 03:02:24;;;;;;;;;;;;;;;29.46;38.93;94448.44;5020824;28;7221;-62
2022/08/01 03:04:55;;;;;;;;;;;;;;;29.47;38.50;94451.97;5025431;28;7322;-62
2022/08/01 03:07:23;;;;;;;;;;;;;;;29.48;38.64;94450.69;5042345;28;6876;-62
2022/08/01 03:09:54;;;;;;;;;;;;;;;29.47;38.06;94458.25;5013544;28;7147;-62
2022/08/01 03:12:52;;;;;;;;;;;;;;;29.46;38.09;94456.00;5029880;28;9881;-62
2022/08/01 03:15:22;;;;;;;;;;;;;;;29.45;38.43;94444.19;5010205;28;6986;-63
2022/08/01 03:18:03;;;;;;;;;;;;;;;29.45;38.32;94449.00;5011449;28;9717;-62
2022/08/01 03:20:42;;;;;;;;;;;;;;;29.46;38.40;94450.47;5011346;28;6908;-62
2022/08/01 03:23:22;;;;;;;;;;;;;;;29.45;38.96;94446.94;4992943;28;9151;-62
2022/08/01 03:25:52;;;;;;;;;;;;;;;29.46;38.54;94450.47;5010182;28;7290;-62
2022/08/01 03:28:22;;;;;;;;;;;;;;;29.46;38.50;94453.25;4994944;28;7239;-62
2022/08/01 03:31:01;;;;;;;;;;;;;;;29.44;38.63;94441.94;4994592;28;7326;-62
2022/08/01 03:33:29;;;;;;;;;;;;;;;29.43;38.61;94445.97;5012517;28;7242;-62
2022/08/01 03:35:55;;;;;;;;;;;;;;;29.43;38.33;94448.75;4990536;28;7419;-62
2022/08/01 03:38:26;;;;;;;;;;;;;;;29.44;38.43;94444.72;5006417;28;7054;-62
2022/08/01 03:41:08;;;;;;;;;;;;;;;29.44;38.83;94448.25;5005617;28;6994;-62
2022/08/01 03:43:50;;;;;;;;;;;;;;;29.43;38.51;94452.28;4989165;28;8245;-62
2022/08/01 03:46:35;;;;;;;;;;;;;;;29.43;37.91;94451.53;5005583;28;7577;-62
2022/08/01 03:49:13;;;;;;;;;;;;;;;29.43;38.18;94454.31;5006436;28;7239;-62
2022/08/01 03:51:40;;;;;;;;;;;;;;;29.41;38.81;94445.78;5016422;28;7444;-62
2022/08/01 03:54:10;;;;;;;;;;;;;;;29.39;38.30;94446.31;5026722;28;9250;-62
2022/08/01 03:56:49;;;;;;;;;;;;;;;29.41;38.61;94451.31;5030294;28;8672;-62
2022/08/01 03:59:21;;;;;;;;;;;;;;;29.41;38.88;94451.31;5033184;28;7268;-62
2022/08/01 04:01:58;;;;;;;;;;;;;;;29.38;38.36;94439.31;5014956;28;7556;-62
2022/08/01 04:04:25;;;;;;;;;;;;;;;29.39;38.77;94440.03;5015551;28;8929;-62
2022/08/01 04:06:53;;;;;;;;;;;;;;;29.36;38.79;94436.28;5048707;28;7039;-62
2022/08/01 04:09:23;;;;;;;;;;;;;;;29.36;38.34;94441.84;5030483;28;7223;-62
2022/08/01 04:12:00;;;;;;;;;;;;;;;29.36;38.67;94443.88;5031728;28;7524;-62
2022/08/01 04:14:35;;;;;;;;;;;;;;;29.33;38.66;94445.69;5030571;28;9067;-62
2022/08/01 04:17:02;;;;;;;;;;;;;;;29.32;38.20;94438.66;5049943;28;9067;-62
2022/08/01 04:19:28;;;;;;;;;;;;;;;29.35;38.17;94436.84;5034193;28;7329;-62
2022/08/01 04:21:54;;;;;;;;;;;;;;;29.34;38.78;94435.38;5015855;28;8769;-62
2022/08/01 04:24:41;;;;;;;;;;;;;;;29.33;38.14;94450.47;5049433;28;7592;-62
2022/08/01 04:27:17;;;;;;;;;;;;;;;29.31;38.67;94444.72;5048106;28;8497;-62
2022/08/01 04:29:58;;;;;;;;;;;;;;;29.32;38.27;94449.72;5014131;28;6999;-62
2022/08/01 04:32:44;;;;;;;;;;;;;;;29.30;38.59;94449.53;5016396;28;9086;-62
2022/08/01 04:35:21;;;;;;;;;;;;;;;29.31;38.60;94453.03;5049462;28;8695;-62
2022/08/01 04:38:01;;;;;;;;;;;;;;;29.30;38.72;94451.53;5033859;28;7167;-62
2022/08/01 04:40:28;;;;;;;;;;;;;;;29.30;38.98;94457.09;5049480;28;8980;-62
2022/08/01 04:42:55;;;;;;;;;;;;;;;29.31;38.22;94456.56;5034272;28;8429;-62
2022/08/01 04:45:36;;;;;;;;;;;;;;;29.30;38.36;94457.84;5012275;28;7245;-62
2022/08/01 04:48:06;;;;;;;;;;;;;;;29.29;38.31;94464.66;5033575;28;7366;-62
2022/08/01 04:50:38;;;;;;;;;;;;;;;29.29;38.20;94472.22;5031045;28;8239;-62
2022/08/01 04:53:32;;;;;;;;;;;;;;;29.30;38.59;94468.16;5033302;28;7566;-62
2022/08/01 04:56:08;;;;;;;;;;;;;;;29.30;38.32;94468.91;5014647;28;9150;-62
2022/08/01 04:58:43;;;;;;;;;;;;;;;29.30;38.60;94473.69;5049184;28;8923;-62
2022/08/01 05:01:18;;;;;;;;;;;;;;;29.30;38.88;94468.16;5048165;28;7944;-62
2022/08/01 05:03:45;;;;;;;;;;;;;;;29.28;38.67;94465.19;5032440;28;9106;-62
2022/08/01 05:06:25;;;;;;;;;;;;;;;29.30;38.21;94466.16;5015087;28;7205;-62
2022/08/01 05:08:51;;;;;;;;;;;;;;;29.30;38.58;94470.94;5028880;28;7217;-62
2022/08/01 05:11:17;;;;;;;;;;;;;;;29.30;38.84;94473.69;5031217;28;9057;-62
2022/08/01 05:13:47;;;;;;;;;;;;;;;29.30;38.74;94479.25;5048273;28;8788;-62
2022/08/01 05:16:14;;;;;;;;;;;;;;;29.30;38.51;94476.47;5048029;28;9495;-62
2022/08/01 05:18:47;;;;;;;;;;;;;;;29.30;38.46;94474.47;5030507;28;7458;-61
2022/08/01 05:21:23;;;;;;;;;;;;;;;29.31;38.87;94469.66;5030428;28;7311;-62
2022/08/01 05:23:50;;;;;;;;;;;;;;;29.33;38.38;94469.88;5032727;28;7044;-62
2022/08/01 05:26:28;;;;;;;;;;;;;;;29.32;38.42;94468.41;5048033;28;7219;-62
2022/08/01 05:29:10;;;;;;;;;;;;;;;29.30;38.81;94471.69;5031609;28;9772;-62
2022/08/01 05:31:56;;;;;;;;;;;;;;;29.32;39.04;94465.63;5032567;28;9053;-62
2022/08/01 05:34:24;;;;;;;;;;;;;;;29.33;38.16;94472.66;5031446;28;7282;-62
2022/08/01 05:36:54;;;;;;;;;;;;;;;29.32;38.46;94477.44;5030058;28;8989;-62
2022/08/01 05:39:20;;;;;;;;;;;;;;;29.32;38.86;94476.72;5028563;28;7281;-62
2022/08/01 05:41:46;;;;;;;;;;;;;;;29.33;38.25;94478.19;5027802;28;7381;-62
2022/08/01 05:44:12;;;;;;;;;;;;;;;29.33;38.14;94478.94;5042978;28;8820;-62
2022/08/01 05:46:41;;;;;;;;;;;;;;;29.34;38.88;94474.16;5045622;28;8995;-62
2022/08/01 05:49:10;;;;;;;;;;;;;;;29.34;38.16;94468.63;5043944;28;8844;-62
2022/08/01 05:51:38;;;;;;;;;;;;;;;29.34;38.04;94474.16;5041619;28;6895;-62
2022/08/01 05:54:08;;;;;;;;;;;;;;;29.33;38.81;94476.16;5026257;28;9170;-62
2022/08/01 05:56:40;;;;;;;;;;;;;;;29.32;37.99;94480.22;5030834;28;9189;-62
2022/08/01 05:59:06;;;;;;;;;;;;;;;29.30;38.57;94482.78;5008881;28;9274;-62
2022/08/01 06:01:37;;;;;;;;;;;;;;;29.28;38.33;94482.56;5024657;28;6998;-62
2022/08/01 06:04:03;;;;;;;;;;;;;;;29.28;39.13;94479.03;5024734;28;7290;-62
2022/08/01 06:06:30;;;;;;;;;;;;;;;29.27;38.36;94480.34;5009583;28;7227;-62
2022/08/01 06:08:56;;;;;;;;;;;;;;;29.27;38.93;94481.09;5041265;28;7174;-62
2022/08/01 06:11:22;;;;;;;;;;;;;;;29.29;38.14;94484.06;5041762;28;7443;-62
2022/08/01 06:13:48;;;;;;;;;;;;;;;29.27;39.07;94489.41;5023552;28;9258;-62
2022/08/01 06:16:14;;;;;;;;;;;;;;;29.27;38.39;94492.16;5008191;28;9005;-62
2022/08/01 06:18:41;;;;;;;;;;;;;;;29.26;39.07;94490.66;5043066;28;9126;-62
2022/08/01 06:21:08;;;;;;;;;;;;;;;29.26;39.05;94495.44;5027328;28;7436;-62
2022/08/01 06:23:41;;;;;;;;;;;;;;;29.25;38.37;94494.72;5008811;28;8767;-62
2022/08/01 06:26:07;;;;;;;;;;;;;;;29.25;38.38;94494.72;5027619;28;9157;-62
2022/08/01 06:28:35;;;;;;;;;;;;;;;29.25;38.67;94489.19;5009331;28;7273;-62
2022/08/01 06:31:09;;;;;;;;;;;;;;;29.24;38.58;94492.47;5043302;28;9040;-62
2022/08/01 06:33:41;;;;;;;;;;;;;;;29.23;38.90;94486.19;5024489;28;6851;-62
2022/08/01 06:36:07;;;;;;;;;;;;;;;29.23;38.85;94496.53;5024005;28;7229;-62
2022/08/01 06:38:33;;;;;;;;;;;;;;;29.23;38.68;94491.00;5039689;28;7915;-62
2022/08/01 06:40:59;;;;;;;;;;;;;;;29.22;38.74;94495.78;5041216;28;9089;-62
2022/08/01 06:43:25;;;;;;;;;;;;;;;29.20;38.53;94490.03;5023244;28;9329;-62
2022/08/01 06:45:51;;;;;;;;;;;;;;;29.22;38.83;94495.03;5041357;28;7175;-62
2022/08/01 06:48:17;;;;;;;;;;;;;;;29.20;38.55;94489.28;5025228;28;7188;-62
2022/08/01 06:50:46;;;;;;;;;;;;;;;29.21;39.08;94490.78;5028451;28;9311;-62
2022/08/01 06:53:19;;;;;;;;;;;;;;;29.23;38.87;94491.72;5045742;28;7846;-62
2022/08/01 06:55:45;;;;;;;;;;;;;;;29.23;38.85;94491.00;5013176;28;7050;-62
2022/08/01 06:58:11;;;;;;;;;;;;;;;29.23;38.77;94485.44;5013280;28;9051;-62
2022/08/01 07:00:37;;;;;;;;;;;;;;;29.22;38.57;94487.47;5045412;28;7233;-62
2022/08/01 07:03:05;;;;;;;;;;;;;;;29.25;39.21;94485.66;5012609;28;7002;-62
2022/08/01 07:05:31;;;;;;;;;;;;;;;29.25;38.47;94485.66;5029649;28;7040;-62
2022/08/01 07:07:57;;;;;;;;;;;;;;;29.24;39.05;94481.38;5046648;28;6992;-62
2022/08/01 07:10:23;;;;;;;;;;;;;;;29.24;39.30;94476.59;5050245;28;6940;-62
2022/08/01 07:12:53;;;;;;;;;;;;;;;29.25;39.03;94480.13;5050511;28;7023;-62
2022/08/01 07:15:27;;;;;;;;;;;;;;;29.25;38.98;94483.63;5034325;28;7278;-62
2022/08/01 07:18:19;;;;;;;;;;;;;;;29.25;39.20;94480.13;5015481;28;7264;-62
2022/08/01 07:21:00;;;;;;;;;;;;;;;29.24;38.68;94482.13;5032837;28;9234;-63
2022/08/01 07:23:33;;;;;;;;;;;;;;;29.23;39.17;94475.09;5016669;28;9439;-62
2022/08/01 07:26:03;;;;;;;;;;;;;;;29.23;38.54;94475.09;5050741;28;7197;-62
2022/08/01 07:29:00;;;;;;;;;;;;;;;29.24;38.71;94475.84;5034374;28;8846;-62
2022/08/01 07:31:57;;;;;;;;;;;;;;;29.25;38.62;94472.56;5034901;28;7884;-62
2022/08/01 07:34:37;;;;;;;;;;;;;;;29.27;38.60;94472.03;4973090;28;7417;-62
2022/08/01 07:37:37;;;;;;;;;;;;;;;29.25;38.71;94477.34;4955051;28;9125;-62
2022/08/01 07:40:05;;;;;;;;;;;;;;;29.25;39.00;94469.03;4905712;29;9405;-62
2022/08/01 07:42:43;;;;;;;;;;;;;;;29.25;39.20;94467.03;4905844;29;8875;-62
2022/08/01 07:45:21;;;;;;;;;;;;;;;29.25;38.51;94466.28;4903345;29;8205;-62
2022/08/01 07:47:51;;;;;;;;;;;;;;;29.25;38.47;94464.25;4890653;29;7292;-62
2022/08/01 07:50:31;;;;;;;;;;;;;;;29.24;38.64;94459.97;4891525;29;7427;-62
2022/08/01 07:53:02;;;;;;;;;;;;;;;29.24;38.70;94462.75;4897081;29;6988;-62
2022/08/01 07:55:40;;;;;;;;;;;;;;;29.25;38.98;94461.47;4894517;29;7248;-62
2022/08/01 07:58:19;;;;;;;;;;;;;;;29.26;38.74;94462.97;4891118;29;7259;-62
2022/08/01 08:01:00;;;;;;;;;;;;;;;29.28;38.38;94465.19;4884071;29;9001;-62
2022/08/01 08:03:45;;;;;;;;;;;;;;;29.27;38.33;94458.16;4895958;29;7496;-62
2022/08/01 08:06:38;;;;;;;;;;;;;;;29.27;38.90;94463.72;4896156;29;7084;-62
2022/08/01 08:09:04;;;;;;;;;;;;;;;29.27;38.88;94458.16;4894014;29;7167;-62
2022/08/01 08:11:30;;;;;;;;;;;;;;;29.26;38.82;94462.19;4936329;28;7514;-63
2022/08/01 08:13:56;;;;;;;;;;;;;;;29.27;38.89;94447.84;4989184;28;7041;-62
2022/08/01 08:16:26;;;;;;;;;;;;;;;29.27;38.74;94460.94;5016829;28;7015;-62
2022/08/01 08:18:55;;;;;;;;;;;;;;;29.27;38.89;94450.59;5016669;28;7162;-62
2022/08/01 08:21:22;;;;;;;;;;;;;;;29.27;38.75;94456.16;5049667;28;7154;-62
2022/08/01 08:26:43;;;;;;;;;;;;;;;29.27;39.07;94455.41;5033029;28;7251;-62
2022/08/01 08:29:24;;;;;;;;;;;;;;;29.27;39.07;94456.16;5049320;28;6991;-62
2022/08/01 08:31:52;;;;;;;;;;;;;;;29.28;38.68;94454.09;5014209;28;7000;-62
2022/08/01 08:34:20;;;;;;;;;;;;;;;29.28;38.84;94454.09;5032979;28;7474;-62
2022/08/01 08:36:54;;;;;;;;;;;;;;;29.26;38.82;94451.88;5048754;28;9187;-62
2022/08/01 08:39:29;;;;;;;;;;;;;;;29.28;39.13;94449.31;5015720;28;7264;-62
2022/08/01 08:42:01;;;;;;;;;;;;;;;29.30;38.60;94457.84;5015116;28;7930;-62
2022/08/01 08:44:38;;;;;;;;;;;;;;;29.29;39.13;94445.28;5031928;28;8747;-62
2022/08/01 08:47:08;;;;;;;;;;;;;;;29.28;39.20;94438.22;5029431;28;7207;-62
2022/08/01 08:49:35;;;;;;;;;;;;;;;29.31;39.15;94447.50;5014384;28;9193;-62
2022/08/01 08:52:04;;;;;;;;;;;;;;;29.29;39.08;94448.03;5009484;28;7131;-62
2022/08/01 08:54:32;;;;;;;;;;;;;;;29.29;38.92;94438.97;5041977;28;7286;-62
2022/08/01 08:57:00;;;;;;;;;;;;;;;29.30;38.21;94446.00;5044297;28;7650;-62
2022/08/01 08:59:28;;;;;;;;;;;;;;;29.32;38.74;94446.25;5009292;28;9202;-62
2022/08/01 09:01:54;;;;;;;;;;;;;;;29.31;39.09;94441.97;5009316;28;9108;-62
2022/08/01 09:04:23;;;;;;;;;;;;;;;29.31;38.43;94448.25;5025514;28;9088;-62
2022/08/01 09:06:54;;;;;;;;;;;;;;;29.31;39.05;94450.28;5026410;28;7246;-62
2022/08/01 09:09:20;;;;;;;;;;;;;;;29.30;38.90;94448.78;5024479;28;7276;-62
2022/08/01 09:11:46;;;;;;;;;;;;;;;29.33;39.21;94445.69;5011015;28;9525;-62
2022/08/01 09:14:22;;;;;;;;;;;;;;;29.34;38.32;94449.22;5043749;28;9077;-62
2022/08/01 09:17:16;;;;;;;;;;;;;;;29.34;38.65;94447.16;5015834;28;6930;-62
2022/08/01 09:19:51;;;;;;;;;;;;;;;29.34;38.80;94447.16;5031803;28;9210;-61
2022/08/01 09:22:35;;;;;;;;;;;;;;;29.35;38.83;94436.84;5049077;28;7292;-62
2022/08/01 09:25:08;;;;;;;;;;;;;;;29.36;38.98;94441.13;5028667;28;7011;-62
2022/08/01 09:27:40;;;;;;;;;;;;;;;29.37;38.57;94437.03;5010025;28;6994;-62
2022/08/01 09:30:13;;;;;;;;;;;;;;;29.36;38.71;94441.13;5025352;28;7191;-62
2022/08/01 09:33:02;;;;;;;;;;;;;;;29.37;38.84;94434.28;5024900;28;6968;-62
2022/08/01 09:35:36;;;;;;;;;;;;;;;29.36;38.45;94446.66;5042302;28;7481;-62
2022/08/01 09:38:28;;;;;;;;;;;;;;;29.36;38.75;94432.81;5026163;28;9068;-62
2022/08/01 09:41:03;;;;;;;;;;;;;;;29.34;38.56;94429.81;5009828;28;7279;-62
2022/08/01 09:43:31;;;;;;;;;;;;;;;29.36;38.40;94432.81;5046518;28;7258;-62
2022/08/01 09:46:36;;;;;;;;;;;;;;;29.36;38.50;94432.81;5032262;28;7285;-62
2022/08/01 09:49:34;;;;;;;;;;;;;;;29.37;38.48;94434.28;5032396;28;7202;-62
2022/08/01 09:52:17;;;;;;;;;;;;;;;29.37;38.93;94429.50;5013887;28;8851;-62
2022/08/01 09:55:27;;;;;;;;;;;;;;;29.39;38.28;94421.38;5030749;28;7244;-62
2022/08/01 09:58:11;;;;;;;;;;;;;;;29.41;39.18;94423.59;5032414;28;7032;-62
2022/08/01 10:01:03;;;;;;;;;;;;;;;29.41;38.54;94432.66;5032662;28;9054;-62
2022/08/01 10:03:36;;;;;;;;;;;;;;;29.43;38.48;94434.91;5028967;28;7137;-62
2022/08/01 10:06:24;;;;;;;;;;;;;;;29.42;38.64;94419.56;5046928;28;9027;-62
2022/08/01 10:08:53;;;;;;;;;;;;;;;29.43;38.28;94421.78;5047110;28;9075;-62
2022/08/01 10:11:23;;;;;;;;;;;;;;;29.44;38.48;94419.78;5031927;28;7381;-62
2022/08/01 10:13:52;;;;;;;;;;;;;;;29.44;38.15;94419.78;5031368;28;7630;-62
2022/08/01 10:16:19;;;;;;;;;;;;;;;29.43;38.36;94418.28;5030498;28;9528;-62
2022/08/01 10:18:47;;;;;;;;;;;;;;;29.42;38.35;94417.56;5032224;28;7440;-62
2022/08/01 10:21:18;;;;;;;;;;;;;;;29.44;38.26;94412.22;5030503;28;7017;-62
2022/08/01 10:23:48;;;;;;;;;;;;;;;29.45;38.27;94413.69;5029743;28;7206;-62
2022/08/01 10:26:16;;;;;;;;;;;;;;;29.46;39.11;94404.09;5027518;28;9119;-62
2022/08/01 10:29:18;;;;;;;;;;;;;;;29.48;38.37;94404.31;5032078;28;9343;-62
2022/08/01 10:32:01;;;;;;;;;;;;;;;29.49;38.38;94407.84;4993623;28;7382;-62
2022/08/01 10:34:49;;;;;;;;;;;;;;;29.49;38.60;94393.97;5002600;28;7252;-62
2022/08/01 10:37:57;;;;;;;;;;;;;;;29.48;38.47;94398.03;5006875;28;7263;-62
2022/08/01 10:40:29;;;;;;;;;;;;;;;29.48;38.53;94398.78;5006848;28;7260;-62
2022/08/01 10:42:58;;;;;;;;;;;;;;;29.48;37.90;94403.56;5002118;28;7075;-62
2022/08/01 10:45:26;;;;;;;;;;;;;;;29.49;38.50;94396.75;4985622;28;8308;-62
2022/08/01 10:48:30;;;;;;;;;;;;;;;29.50;38.27;94389.91;4987586;28;8272;-62
2022/08/01 10:51:02;;;;;;;;;;;;;;;29.49;38.40;94393.97;5002237;28;9071;-62
2022/08/01 10:53:47;;;;;;;;;;;;;;;29.49;38.17;94391.22;4996815;28;7225;-62
2022/08/01 10:56:14;;;;;;;;;;;;;;;29.53;38.97;94392.38;5003354;28;9392;-62
2022/08/01 10:58:45;;;;;;;;;;;;;;;29.52;38.08;94387.34;4986741;28;7991;-62
2022/08/01 11:01:28;;;;;;;;;;;;;;;29.51;38.55;94380.34;5002984;28;9100;-62
2022/08/01 11:04:02;;;;;;;;;;;;;;;29.54;38.37;94391.06;5002026;28;7062;-62
2022/08/01 11:06:34;;;;;;;;;;;;;;;29.56;38.41;94385.00;5003692;28;8594;-62
2022/08/01 11:09:06;;;;;;;;;;;;;;;29.54;38.47;94393.09;5025181;28;7174;-61
2022/08/01 11:11:32;;;;;;;;;;;;;;;29.50;39.25;94385.13;5009364;28;7291;-61
2022/08/01 11:13:58;;;;;;;;;;;;;;;29.50;39.08;94387.13;5030915;28;7033;-60
2022/08/01 11:16:27;;;;;;;;;;;;;;;29.49;39.10;94382.91;5029243;28;9375;-61
2022/08/01 11:19:43;;;;;;;;;;;;;;;29.50;39.10;94381.59;5028715;28;7326;-62
2022/08/01 11:22:19;;;;;;;;;;;;;;;29.53;39.55;94380.53;4969132;28;7319;-61
2022/08/01 11:24:51;;;;;;;;;;;;;;;29.53;40.37;94366.69;4947808;28;7314;-61
2022/08/01 11:27:28;;;;;;;;;;;;;;;29.56;39.72;94371.88;4965169;28;7251;-62
2022/08/01 11:30:09;;;;;;;;;;;;;;;29.59;38.96;94370.06;4968006;28;7180;-62
2022/08/01 11:32:55;;;;;;;;;;;;;;;29.62;39.10;94374.53;4957413;28;7995;-62
2022/08/01 11:35:26;;;;;;;;;;;;;;;29.63;39.28;94371.22;4948063;28;9059;-61
2022/08/01 11:37:56;;;;;;;;;;;;;;;29.62;39.23;94366.94;4966383;28;9153;-62
2022/08/01 11:40:27;;;;;;;;;;;;;;;29.63;39.23;94364.94;4968399;28;7247;-62
2022/08/01 11:43:16;;;;;;;;;;;;;;;29.63;39.22;94362.91;4968212;28;7026;-61
2022/08/01 11:45:51;;;;;;;;;;;;;;;29.62;39.21;94366.22;4969825;28;7458;-61
2022/08/01 11:48:29;;;;;;;;;;;;;;;29.64;38.96;94372.72;4970799;28;7244;-62
2022/08/01 11:50:57;;;;;;;;;;;;;;;29.64;39.29;94364.41;4961436;28;7237;-61
2022/08/01 11:53:23;;;;;;;;;;;;;;;29.65;39.05;94356.81;4968739;28;7058;-61
2022/08/01 11:55:52;;;;;;;;;;;;;;;29.66;38.69;94352.78;4950703;28;9055;-61
2022/08/01 11:58:24;;;;;;;;;;;;;;;29.66;38.84;94350.00;5009558;28;8944;-62
2022/08/01 12:00:58;;;;;;;;;;;;;;;29.67;39.03;94349.47;5028876;28;7037;-62
2022/08/01 12:03:27;;;;;;;;;;;;;;;29.67;38.80;94357.78;5028719;28;9029;-62
2022/08/01 12:05:57;;;;;;;;;;;;;;;29.67;38.38;94348.69;5011588;28;9236;-62
2022/08/01 12:08:26;;;;;;;;;;;;;;;29.66;38.10;94347.97;5026996;28;9155;-61
2022/08/01 12:10:53;;;;;;;;;;;;;;;29.66;38.28;94347.22;5027722;28;7407;-61
2022/08/01 12:13:19;;;;;;;;;;;;;;;29.66;38.68;94345.22;5011265;28;7188;-61
2022/08/01 12:15:46;;;;;;;;;;;;;;;29.65;39.19;94331.88;5045790;28;7028;-61
2022/08/01 12:18:13;;;;;;;;;;;;;;;29.65;38.84;94338.16;5014325;28;8523;-61
2022/08/01 12:20:45;;;;;;;;;;;;;;;29.67;38.97;94338.38;5031498;28;7028;-61
2022/08/01 12:23:15;;;;;;;;;;;;;;;29.67;38.98;94329.31;5032339;28;7277;-62
2022/08/01 12:25:48;;;;;;;;;;;;;;;29.69;38.95;94335.03;5031880;28;7002;-62
2022/08/01 12:28:21;;;;;;;;;;;;;;;29.69;38.36;94327.47;5031630;28;9057;-61
2022/08/01 12:30:48;;;;;;;;;;;;;;;29.70;38.30;94337.31;5033078;28;9473;-61
2022/08/01 12:33:28;;;;;;;;;;;;;;;29.72;38.42;94336.75;5015307;28;7329;-61
2022/08/01 12:36:41;;;;;;;;;;;;;;;29.72;39.14;94326.41;5030550;28;7270;-61
2022/08/01 12:39:08;;;;;;;;;;;;;;;29.72;38.30;94326.41;5026313;28;9131;-61
2022/08/01 12:41:53;;;;;;;;;;;;;;;29.71;38.30;94324.91;5016006;28;7041;-62
2022/08/01 12:44:24;;;;;;;;;;;;;;;29.71;38.87;94330.47;5033411;28;8745;-61
2022/08/01 12:47:08;;;;;;;;;;;;;;;29.74;38.53;94317.56;5032682;28;9195;-61
2022/08/01 12:49:49;;;;;;;;;;;;;;;29.74;38.55;94331.44;5032655;28;7383;-61
2022/08/01 12:52:33;;;;;;;;;;;;;;;29.75;38.71;94336.44;5015163;28;7613;-62
2022/08/01 12:55:00;;;;;;;;;;;;;;;29.76;38.76;94326.84;5049219;28;7343;-61
2022/08/01 12:57:28;;;;;;;;;;;;;;;29.76;38.30;94324.06;5048234;28;7018;-61
2022/08/01 13:00:25;;;;;;;;;;;;;;;29.76;39.23;94321.31;5015634;28;9216;-61
2022/08/01 13:03:19;;;;;;;;;;;;;;;29.76;38.37;94321.31;5028587;28;7956;-61
2022/08/01 13:05:48;;;;;;;;;;;;;;;29.78;38.71;94327.06;5028373;28;9221;-61
2022/08/01 13:08:20;;;;;;;;;;;;;;;29.77;38.57;94319.28;5010188;28;8111;-61
2022/08/01 13:10:50;;;;;;;;;;;;;;;29.78;38.39;94321.50;5009939;28;7194;-61
2022/08/01 13:13:19;;;;;;;;;;;;;;;29.80;39.18;94312.63;5043332;28;9147;-61
2022/08/01 13:16:02;;;;;;;;;;;;;;;29.80;38.67;94312.63;5042753;28;7230;-61
2022/08/01 13:18:33;;;;;;;;;;;;;;;29.79;38.39;94298.06;5027518;28;7211;-61
2022/08/01 13:21:31;;;;;;;;;;;;;;;29.81;38.43;94311.38;5025963;28;7135;-62
2022/08/01 13:24:12;;;;;;;;;;;;;;;29.84;38.68;94301.22;4998315;28;9047;-62
2022/08/01 13:26:48;;;;;;;;;;;;;;;29.83;38.46;94305.28;4987516;28;7300;-61
2022/08/01 13:29:28;;;;;;;;;;;;;;;29.82;38.91;94307.28;4986427;28;7671;-62
2022/08/01 13:31:55;;;;;;;;;;;;;;;29.84;38.07;94313.03;4981319;28;6998;-62
2022/08/01 13:34:33;;;;;;;;;;;;;;;29.84;38.76;94304.00;4987511;28;7327;-61
2022/08/01 13:37:01;;;;;;;;;;;;;;;29.85;38.78;94306.22;4994667;28;9155;-62
2022/08/01 13:39:40;;;;;;;;;;;;;;;29.87;39.17;94306.41;4987598;28;7197;-62
2022/08/01 13:42:16;;;;;;;;;;;;;;;29.87;39.20;94306.41;5003825;28;9426;-61